sensor_id;sensor_type;location;lat;lon;timestamp;pressure;altitude;pressure_sealevel;temperature;humidity
48555;BME280;34336;48.270;16.716;2022-07-06T00:00:50;75831.09;;;18.16;70.50
48555;BME280;34336;48.270;16.716;2022-07-06T00:03:17;75831.09;;;18.16;70.10
48555;BME280;34336;48.270;16.716;2022-07-06T00:05:44;75819.53;;;18.16;70.10
48555;BME280;34336;48.270;16.716;2022-07-06T00:08:11;75831.09;;;18.16;70.24
48555;BME280;34336;48.270;16.716;2022-07-06T00:10:38;75831.09;;;18.16;70.34
48555;BME280;34336;48.270;16.716;2022-07-06T00:13:05;75838.78;;;18.16;70.83
48555;BME280;34336;48.270;16.716;2022-07-06T00:15:31;75834.94;;;18.16;70.95
48555;BME280;34336;48.270;16.716;2022-07-06T00:17:58;75827.22;;;18.16;70.80
48555;BME280;34336;48.270;16.716;2022-07-06T00:20:25;75819.53;;;18.16;70.37
48555;BME280;34336;48.270;16.716;2022-07-06T00:22:52;75807.97;;;18.16;70.32
48555;BME280;34336;48.270;16.716;2022-07-06T00:25:18;75804.13;;;18.16;70.25
48555;BME280;34336;48.270;16.716;2022-07-06T00:27:45;75798.34;;;18.16;69.92
48555;BME280;34336;48.270;16.716;2022-07-06T00:30:12;75798.34;;;18.16;69.87
48555;BME280;34336;48.270;16.716;2022-07-06T00:32:39;75796.41;;;18.16;69.83
48555;BME280;34336;48.270;16.716;2022-07-06T00:35:06;75796.41;;;18.16;69.77
48555;BME280;34336;48.270;16.716;2022-07-06T00:37:33;75788.69;;;18.16;69.53
48555;BME280;34336;48.270;16.716;2022-07-06T00:40:00;75796.41;;;18.16;69.89
48555;BME280;34336;48.270;16.716;2022-07-06T00:42:27;75802.19;;;18.16;70.02
48555;BME280;34336;48.270;16.716;2022-07-06T00:44:54;75800.25;;;18.16;69.94
48555;BME280;34336;48.270;16.716;2022-07-06T00:47:21;75811.81;;;18.16;69.45
48555;BME280;34336;48.270;16.716;2022-07-06T00:49:48;75807.97;;;18.16;69.81
48555;BME280;34336;48.270;16.716;2022-07-06T00:52:33;75811.81;;;18.16;69.84
48555;BME280;34336;48.270;16.716;2022-07-06T00:55:00;75811.81;;;18.16;69.58
48555;BME280;34336;48.270;16.716;2022-07-06T00:57:29;75807.97;;;18.16;69.54
48555;BME280;34336;48.270;16.716;2022-07-06T00:59:56;75815.69;;;18.16;69.70
48555;BME280;34336;48.270;16.716;2022-07-06T01:02:23;75819.53;;;18.16;69.70
48555;BME280;34336;48.270;16.716;2022-07-06T01:04:50;75836.88;;;18.16;69.79
48555;BME280;34336;48.270;16.716;2022-07-06T01:07:17;75844.56;;;18.16;70.17
48555;BME280;34336;48.270;16.716;2022-07-06T01:09:44;75842.66;;;18.16;70.13
48555;BME280;34336;48.270;16.716;2022-07-06T01:12:11;75838.78;;;18.16;69.84
48555;BME280;34336;48.270;16.716;2022-07-06T01:14:38;75842.66;;;18.16;69.92
48555;BME280;34336;48.270;16.716;2022-07-06T01:17:07;75850.34;;;18.16;70.08
48555;BME280;34336;48.270;16.716;2022-07-06T01:19:34;75842.66;;;18.16;69.95
48555;BME280;34336;48.270;16.716;2022-07-06T01:22:01;75854.22;;;18.16;70.43
48555;BME280;34336;48.270;16.716;2022-07-06T01:24:28;75842.66;;;18.16;70.26
48555;BME280;34336;48.270;16.716;2022-07-06T01:26:55;75834.94;;;18.16;69.65
48555;BME280;34336;48.270;16.716;2022-07-06T01:29:22;75819.53;;;18.16;69.03
48555;BME280;34336;48.270;16.716;2022-07-06T01:31:50;75817.59;;;18.16;69.40
48555;BME280;34336;48.270;16.716;2022-07-06T01:34:18;75825.31;;;18.16;69.54
48555;BME280;34336;48.270;16.716;2022-07-06T01:36:46;75833.00;;;18.16;70.23
48555;BME280;34336;48.270;16.716;2022-07-06T01:39:12;75823.38;;;18.16;69.58
48555;BME280;34336;48.270;16.716;2022-07-06T01:41:40;75815.69;;;18.16;69.60
48555;BME280;34336;48.270;16.716;2022-07-06T01:44:07;75815.69;;;18.16;69.99
48555;BME280;34336;48.270;16.716;2022-07-06T01:46:36;75821.44;;;18.16;70.13
48555;BME280;34336;48.270;16.716;2022-07-06T01:49:03;75831.09;;;18.16;70.26
48555;BME280;34336;48.270;16.716;2022-07-06T01:51:31;75846.50;;;18.16;70.41
48555;BME280;34336;48.270;16.716;2022-07-06T01:53:59;75865.75;;;18.16;70.39
48555;BME280;34336;48.270;16.716;2022-07-06T01:56:26;75886.97;;;18.16;71.13
48555;BME280;34336;48.270;16.716;2022-07-06T01:58:59;75904.28;;;18.16;71.83
48555;BME280;34336;48.270;16.716;2022-07-06T02:01:26;75917.78;;;18.16;72.19
48555;BME280;34336;48.270;16.716;2022-07-06T02:03:54;75927.41;;;18.16;72.68
48555;BME280;34336;48.270;16.716;2022-07-06T02:06:21;75937.06;;;18.16;72.75
48555;BME280;34336;48.270;16.716;2022-07-06T02:08:48;75935.13;;;18.16;73.42
48555;BME280;34336;48.270;16.716;2022-07-06T02:11:15;75944.75;;;18.16;72.99
48555;BME280;34336;48.270;16.716;2022-07-06T02:13:43;75952.47;;;18.16;72.95
48555;BME280;34336;48.270;16.716;2022-07-06T02:16:10;75962.09;;;18.16;73.24
48555;BME280;34336;48.270;16.716;2022-07-06T02:18:37;75962.09;;;18.16;73.75
48555;BME280;34336;48.270;16.716;2022-07-06T02:21:05;75962.09;;;18.16;73.95
48555;BME280;34336;48.270;16.716;2022-07-06T02:23:32;75964.03;;;18.16;74.13
48555;BME280;34336;48.270;16.716;2022-07-06T02:25:59;75958.25;;;18.16;74.38
48555;BME280;34336;48.270;16.716;2022-07-06T02:28:26;75960.16;;;18.16;74.35
48555;BME280;34336;48.270;16.716;2022-07-06T02:30:53;75962.09;;;18.16;74.37
48555;BME280;34336;48.270;16.716;2022-07-06T02:33:20;75964.03;;;18.16;74.77
48555;BME280;34336;48.270;16.716;2022-07-06T02:35:47;75973.66;;;18.16;74.73
48555;BME280;34336;48.270;16.716;2022-07-06T02:38:14;75981.38;;;18.16;74.59
48555;BME280;34336;48.270;16.716;2022-07-06T02:40:41;75989.06;;;18.16;74.54
48555;BME280;34336;48.270;16.716;2022-07-06T02:43:08;75992.94;;;18.16;74.93
48555;BME280;34336;48.270;16.716;2022-07-06T02:45:36;76004.47;;;18.16;75.31
48555;BME280;34336;48.270;16.716;2022-07-06T02:48:04;75994.84;;;18.16;75.26
48555;BME280;34336;48.270;16.716;2022-07-06T02:50:32;75992.94;;;18.16;75.42
48555;BME280;34336;48.270;16.716;2022-07-06T02:52:59;75989.06;;;18.16;75.21
48555;BME280;34336;48.270;16.716;2022-07-06T02:55:31;75987.16;;;18.16;75.29
48555;BME280;34336;48.270;16.716;2022-07-06T02:57:58;75979.44;;;18.16;75.43
48555;BME280;34336;48.270;16.716;2022-07-06T03:00:26;75987.16;;;18.16;75.18
48555;BME280;34336;48.270;16.716;2022-07-06T03:02:54;75981.38;;;18.16;75.46
48555;BME280;34336;48.270;16.716;2022-07-06T03:05:22;75983.28;;;18.16;74.97
48555;BME280;34336;48.270;16.716;2022-07-06T03:07:49;76000.63;;;18.16;74.36
48555;BME280;34336;48.270;16.716;2022-07-06T03:10:16;76008.34;;;18.16;74.13
48555;BME280;34336;48.270;16.716;2022-07-06T03:12:44;76017.97;;;18.16;74.64
48555;BME280;34336;48.270;16.716;2022-07-06T03:15:11;76012.19;;;18.16;74.66
48555;BME280;34336;48.270;16.716;2022-07-06T03:17:42;76004.47;;;18.16;74.60
48555;BME280;34336;48.270;16.716;2022-07-06T03:20:10;75971.72;;;18.16;74.96
48555;BME280;34336;48.270;16.716;2022-07-06T03:22:38;75938.97;;;18.16;72.99
48555;BME280;34336;48.270;16.716;2022-07-06T03:25:05;75906.22;;;18.16;71.48
48555;BME280;34336;48.270;16.716;2022-07-06T03:27:33;75894.66;;;18.16;70.06
48555;BME280;34336;48.270;16.716;2022-07-06T03:30:03;75935.13;;;18.16;70.40
48555;BME280;34336;48.270;16.716;2022-07-06T03:32:32;75962.09;;;18.16;71.57
48555;BME280;34336;48.270;16.716;2022-07-06T03:35:01;75971.72;;;18.16;72.37
48555;BME280;34336;48.270;16.716;2022-07-06T03:37:28;75950.53;;;18.16;72.72
48555;BME280;34336;48.270;16.716;2022-07-06T03:39:55;75900.44;;;18.16;72.95
48555;BME280;34336;48.270;16.716;2022-07-06T03:42:22;75823.38;;;18.16;71.69
48555;BME280;34336;48.270;16.716;2022-07-06T03:44:50;75750.16;;;18.16;69.66
48555;BME280;34336;48.270;16.716;2022-07-06T03:47:17;75673.09;;;18.16;68.08
48555;BME280;34336;48.270;16.716;2022-07-06T03:49:44;75551.75;;;18.16;64.69
48555;BME280;34336;48.270;16.716;2022-07-06T03:52:13;75380.28;;;18.16;59.65
48555;BME280;34336;48.270;16.716;2022-07-06T03:54:46;75310.94;;;18.16;55.24
48555;BME280;34336;48.270;16.716;2022-07-06T03:57:18;75149.13;;;18.16;53.23
48555;BME280;34336;48.270;16.716;2022-07-06T03:59:45;75060.53;;;18.16;50.00
48555;BME280;34336;48.270;16.716;2022-07-06T04:02:12;75060.53;;;18.16;49.83
48555;BME280;34336;48.270;16.716;2022-07-06T04:04:39;75025.84;;;18.16;48.71
48555;BME280;34336;48.270;16.716;2022-07-06T04:07:06;75010.44;;;18.16;49.14
48555;BME280;34336;48.270;16.716;2022-07-06T04:09:33;75002.75;;;18.16;49.23
48555;BME280;34336;48.270;16.716;2022-07-06T04:12:00;74800.50;;;18.16;45.73
48555;BME280;34336;48.270;16.716;2022-07-06T04:14:27;74756.22;;;18.16;44.62
48555;BME280;34336;48.270;16.716;2022-07-06T04:16:57;74721.53;;;18.16;43.84
48555;BME280;34336;48.270;16.716;2022-07-06T04:19:24;74590.56;;;18.16;42.19
48555;BME280;34336;48.270;16.716;2022-07-06T04:21:51;74615.63;;;18.16;42.55
48555;BME280;34336;48.270;16.716;2022-07-06T04:24:20;74683.03;;;18.16;42.83
48555;BME280;34336;48.270;16.716;2022-07-06T04:26:46;74702.28;;;18.16;43.55
48555;BME280;34336;48.270;16.716;2022-07-06T04:29:14;74559.75;;;18.16;41.50
48555;BME280;34336;48.270;16.716;2022-07-06T04:31:40;74552.06;;;18.16;41.40
48555;BME280;34336;48.270;16.716;2022-07-06T04:34:10;74548.22;;;18.16;41.35
48555;BME280;34336;48.270;16.716;2022-07-06T04:36:37;74634.88;;;18.16;41.40
48555;BME280;34336;48.270;16.716;2022-07-06T04:39:04;74594.44;;;18.16;41.02
48555;BME280;34336;48.270;16.716;2022-07-06T04:41:31;74617.53;;;18.16;42.47
48555;BME280;34336;48.270;16.716;2022-07-06T04:43:58;74376.81;;;18.16;38.97
48555;BME280;34336;48.270;16.716;2022-07-06T04:46:25;74120.69;;;18.16;35.36
48555;BME280;34336;48.270;16.716;2022-07-06T04:48:53;74220.81;;;18.16;36.24
48555;BME280;34336;48.270;16.716;2022-07-06T04:51:25;73930.06;;;18.16;33.21
48555;BME280;34336;48.270;16.716;2022-07-06T04:53:52;74201.56;;;18.16;35.76
48555;BME280;34336;48.270;16.716;2022-07-06T04:56:20;74182.31;;;18.16;35.88
48555;BME280;34336;48.270;16.716;2022-07-06T04:58:48;74122.63;;;18.16;35.19
48555;BME280;34336;48.270;16.716;2022-07-06T05:01:18;74176.53;;;18.16;36.00
48555;BME280;34336;48.270;16.716;2022-07-06T05:03:46;74234.31;;;18.16;36.99
48555;BME280;34336;48.270;16.716;2022-07-06T05:06:14;74247.78;;;18.16;36.83
48555;BME280;34336;48.270;16.716;2022-07-06T05:08:42;74190.00;;;18.16;36.94
48555;BME280;34336;48.270;16.716;2022-07-06T05:11:10;74232.38;;;18.16;36.75
48555;BME280;34336;48.270;16.716;2022-07-06T05:13:37;74147.66;;;18.16;36.07
48555;BME280;34336;48.270;16.716;2022-07-06T05:16:04;73847.25;;;18.16;32.87
48555;BME280;34336;48.270;16.716;2022-07-06T05:18:31;73758.69;;;18.16;32.33
48555;BME280;34336;48.270;16.716;2022-07-06T05:20:59;73912.72;;;18.16;33.83
48555;BME280;34336;48.270;16.716;2022-07-06T05:23:26;73939.69;;;18.16;33.78
48555;BME280;34336;48.270;16.716;2022-07-06T05:25:54;73887.69;;;18.16;33.45
48555;BME280;34336;48.270;16.716;2022-07-06T05:28:21;74039.81;;;18.16;34.79
48555;BME280;34336;48.270;16.716;2022-07-06T05:30:48;73758.69;;;18.16;32.50
48555;BME280;34336;48.270;16.716;2022-07-06T05:33:16;73758.69;;;18.16;33.11
48555;BME280;34336;48.270;16.716;2022-07-06T05:35:43;73868.44;;;18.16;34.04
48555;BME280;34336;48.270;16.716;2022-07-06T05:38:23;73891.53;;;18.16;34.04
48555;BME280;34336;48.270;16.716;2022-07-06T05:40:51;73941.59;;;18.16;34.42
48555;BME280;34336;48.270;16.716;2022-07-06T05:43:18;73652.78;;;18.16;32.16
48555;BME280;34336;48.270;16.716;2022-07-06T05:45:45;73664.34;;;18.16;32.53
48555;BME280;34336;48.270;16.716;2022-07-06T05:48:13;73878.06;;;18.16;34.17
48555;BME280;34336;48.270;16.716;2022-07-06T05:51:00;73982.03;;;18.16;35.41
48555;BME280;34336;48.270;16.716;2022-07-06T05:53:27;73801.03;;;18.16;33.79
48555;BME280;34336;48.270;16.716;2022-07-06T05:55:56;73654.72;;;18.16;32.25
48555;BME280;34336;48.270;16.716;2022-07-06T05:58:24;73620.06;;;18.16;31.91
48555;BME280;34336;48.270;16.716;2022-07-06T06:00:54;73754.84;;;18.16;33.51
48555;BME280;34336;48.270;16.716;2022-07-06T06:03:21;73489.13;;;18.16;30.49
48555;BME280;34336;48.270;16.716;2022-07-06T06:05:48;73383.25;;;18.16;30.07
48555;BME280;34336;48.270;16.716;2022-07-06T06:08:17;73329.34;;;18.16;29.21
48555;BME280;34336;48.270;16.716;2022-07-06T06:10:44;73392.88;;;18.16;29.62
48555;BME280;34336;48.270;16.716;2022-07-06T06:13:14;73350.50;;;18.16;29.13
48555;BME280;34336;48.270;16.716;2022-07-06T06:15:42;73338.97;;;18.16;29.48
48555;BME280;34336;48.270;16.716;2022-07-06T06:18:08;73308.16;;;18.16;28.80
48555;BME280;34336;48.270;16.716;2022-07-06T06:20:35;73504.53;;;18.16;30.57
48555;BME280;34336;48.270;16.716;2022-07-06T06:23:02;73238.84;;;18.16;29.45
48555;BME280;34336;48.270;16.716;2022-07-06T06:28:00;73400.56;;;18.16;28.99
48555;BME280;34336;48.270;16.716;2022-07-06T06:30:27;73546.88;;;18.16;30.70
48555;BME280;34336;48.270;16.716;2022-07-06T06:33:17;73820.28;;;18.16;33.49
48555;BME280;34336;48.270;16.716;2022-07-06T06:35:45;74151.50;;;18.16;36.52
48555;BME280;34336;48.270;16.716;2022-07-06T06:38:13;74494.28;;;18.16;39.96
48555;BME280;34336;48.270;16.716;2022-07-06T06:40:40;74482.72;;;18.16;40.11
48555;BME280;34336;48.270;16.716;2022-07-06T06:43:07;74228.53;;;18.16;38.24
48555;BME280;34336;48.270;16.716;2022-07-06T06:45:41;74041.72;;;18.16;35.75
48555;BME280;34336;48.270;16.716;2022-07-06T06:48:08;74143.78;;;18.16;35.62
48555;BME280;34336;48.270;16.716;2022-07-06T06:50:47;73989.75;;;18.16;34.64
48555;BME280;34336;48.270;16.716;2022-07-06T06:53:14;73793.34;;;18.16;33.27
48555;BME280;34336;48.270;16.716;2022-07-06T06:55:41;73943.53;;;18.16;33.83
48555;BME280;34336;48.270;16.716;2022-07-06T06:58:07;74111.06;;;18.16;34.83
48555;BME280;34336;48.270;16.716;2022-07-06T07:00:34;74143.78;;;18.16;35.59
48555;BME280;34336;48.270;16.716;2022-07-06T07:03:01;74432.66;;;18.16;38.57
48555;BME280;34336;48.270;16.716;2022-07-06T07:05:28;74201.56;;;18.16;36.70
48555;BME280;34336;48.270;16.716;2022-07-06T07:07:55;74209.25;;;18.16;36.09
48555;BME280;34336;48.270;16.716;2022-07-06T07:10:31;73966.63;;;18.16;34.07
48555;BME280;34336;48.270;16.716;2022-07-06T07:13:00;73851.09;;;18.16;34.06
48555;BME280;34336;48.270;16.716;2022-07-06T07:15:27;73982.03;;;18.16;34.14
48555;BME280;34336;48.270;16.716;2022-07-06T07:17:53;74136.09;;;18.16;35.54
48555;BME280;34336;48.270;16.716;2022-07-06T07:20:20;73893.47;;;18.16;33.43
48555;BME280;34336;48.270;16.716;2022-07-06T07:22:47;74016.69;;;18.16;34.11
48555;BME280;34336;48.270;16.716;2022-07-06T07:25:14;74089.88;;;18.16;35.60
48555;BME280;34336;48.270;16.716;2022-07-06T07:27:41;73905.03;;;18.16;33.48
48555;BME280;34336;48.270;16.716;2022-07-06T07:30:08;73851.09;;;18.16;33.43
48555;BME280;34336;48.270;16.716;2022-07-06T07:32:35;73854.97;;;18.16;33.36
48555;BME280;34336;48.270;16.716;2022-07-06T07:35:03;74078.31;;;18.16;34.49
48555;BME280;34336;48.270;16.716;2022-07-06T07:37:30;73847.25;;;18.16;33.56
48555;BME280;34336;48.270;16.716;2022-07-06T07:39:56;73924.28;;;18.16;33.62
48555;BME280;34336;48.270;16.716;2022-07-06T07:42:23;73972.41;;;18.16;33.50
48555;BME280;34336;48.270;16.716;2022-07-06T07:44:50;74066.78;;;18.16;34.63
48555;BME280;34336;48.270;16.716;2022-07-06T07:47:17;73878.06;;;18.16;33.25
48555;BME280;34336;48.270;16.716;2022-07-06T07:49:44;73976.25;;;18.16;32.66
48555;BME280;34336;48.270;16.716;2022-07-06T07:52:10;73995.53;;;18.16;33.61
48555;BME280;34336;48.270;16.716;2022-07-06T07:54:37;73872.28;;;18.16;33.03
48555;BME280;34336;48.270;16.716;2022-07-06T07:57:12;73953.16;;;18.16;33.36
48555;BME280;34336;48.270;16.716;2022-07-06T07:59:39;74103.34;;;18.16;34.81
48555;BME280;34336;48.270;16.716;2022-07-06T08:02:06;74163.06;;;18.16;34.38
48555;BME280;34336;48.270;16.716;2022-07-06T08:04:33;74101.44;;;18.16;33.56
48555;BME280;34336;48.270;16.716;2022-07-06T08:07:00;73989.75;;;18.16;33.89
48555;BME280;34336;48.270;16.716;2022-07-06T08:09:27;74114.91;;;18.16;33.92
48555;BME280;34336;48.270;16.716;2022-07-06T08:11:54;74024.41;;;18.16;32.83
48555;BME280;34336;48.270;16.716;2022-07-06T08:14:21;74139.94;;;18.16;32.32
48555;BME280;34336;48.270;16.716;2022-07-06T08:16:48;74184.22;;;18.16;32.60
48555;BME280;34336;48.270;16.716;2022-07-06T08:19:14;74234.31;;;18.16;33.71
48555;BME280;34336;48.270;16.716;2022-07-06T08:21:42;74236.22;;;18.16;33.87
48555;BME280;34336;48.270;16.716;2022-07-06T08:24:10;74166.91;;;18.16;33.58
48555;BME280;34336;48.270;16.716;2022-07-06T08:26:37;74109.13;;;18.16;32.89
48555;BME280;34336;48.270;16.716;2022-07-06T08:29:04;74062.91;;;18.16;33.30
48555;BME280;34336;48.270;16.716;2022-07-06T08:31:31;74174.59;;;18.16;33.61
48555;BME280;34336;48.270;16.716;2022-07-06T08:34:19;74112.97;;;18.16;33.42
48555;BME280;34336;48.270;16.716;2022-07-06T08:36:46;74118.75;;;18.16;32.97
48555;BME280;34336;48.270;16.716;2022-07-06T08:39:13;74105.28;;;18.16;31.25
48555;BME280;34336;48.270;16.716;2022-07-06T08:41:41;74101.44;;;18.16;31.56
48555;BME280;34336;48.270;16.716;2022-07-06T08:44:09;74116.84;;;18.16;33.45
48555;BME280;34336;48.270;16.716;2022-07-06T08:46:40;74120.69;;;18.16;31.41
48555;BME280;34336;48.270;16.716;2022-07-06T08:49:08;74176.53;;;18.16;32.82
48555;BME280;34336;48.270;16.716;2022-07-06T08:51:35;74089.88;;;18.16;32.50
48555;BME280;34336;48.270;16.716;2022-07-06T08:54:03;74151.50;;;18.16;33.40
48555;BME280;34336;48.270;16.716;2022-07-06T08:56:30;74122.63;;;18.16;31.02
48555;BME280;34336;48.270;16.716;2022-07-06T08:58:57;74132.25;;;18.16;32.39
48555;BME280;34336;48.270;16.716;2022-07-06T09:01:25;74193.88;;;18.16;32.19
48555;BME280;34336;48.270;16.716;2022-07-06T09:03:54;74139.94;;;18.16;31.57
48555;BME280;34336;48.270;16.716;2022-07-06T09:06:25;74168.81;;;18.16;33.24
48555;BME280;34336;48.270;16.716;2022-07-06T09:08:56;74180.38;;;18.16;33.04
48555;BME280;34336;48.270;16.716;2022-07-06T09:11:24;74216.97;;;18.16;33.42
48555;BME280;34336;48.270;16.716;2022-07-06T09:13:52;74280.53;;;18.16;33.97
48555;BME280;34336;48.270;16.716;2022-07-06T09:16:25;74228.53;;;18.16;33.50
48555;BME280;34336;48.270;16.716;2022-07-06T09:19:06;74240.06;;;18.16;33.46
48555;BME280;34336;48.270;16.716;2022-07-06T09:21:34;74164.97;;;18.16;32.45
48555;BME280;34336;48.270;16.716;2022-07-06T09:24:09;74243.94;;;18.16;33.77
48555;BME280;34336;48.270;16.716;2022-07-06T09:26:36;74405.69;;;18.16;35.27
48555;BME280;34336;48.270;16.716;2022-07-06T09:29:04;74421.09;;;18.16;34.20
48555;BME280;34336;48.270;16.716;2022-07-06T09:31:32;74448.06;;;18.16;35.61
48555;BME280;34336;48.270;16.716;2022-07-06T09:33:59;74503.91;;;18.16;36.46
48555;BME280;34336;48.270;16.716;2022-07-06T09:36:47;74394.13;;;18.16;35.43
48555;BME280;34336;48.270;16.716;2022-07-06T09:39:22;74334.44;;;18.16;35.06
48555;BME280;34336;48.270;16.716;2022-07-06T09:41:54;74313.25;;;18.16;34.48
48555;BME280;34336;48.270;16.716;2022-07-06T09:46:49;74232.38;;;18.16;34.29
48555;BME280;34336;48.270;16.716;2022-07-06T09:49:18;74163.06;;;18.16;34.22
48555;BME280;34336;48.270;16.716;2022-07-06T09:51:48;74195.78;;;18.16;33.93
48555;BME280;34336;48.270;16.716;2022-07-06T09:54:16;74153.41;;;18.16;33.08
48555;BME280;34336;48.270;16.716;2022-07-06T09:56:44;74124.53;;;18.16;33.69
48555;BME280;34336;48.270;16.716;2022-07-06T09:59:18;74070.63;;;18.16;31.58
48555;BME280;34336;48.270;16.716;2022-07-06T10:01:51;74232.38;;;18.16;33.87
48555;BME280;34336;48.270;16.716;2022-07-06T10:04:18;74209.25;;;18.16;33.49
48555;BME280;34336;48.270;16.716;2022-07-06T10:06:48;74180.38;;;18.16;34.37
48555;BME280;34336;48.270;16.716;2022-07-06T10:09:15;74243.94;;;18.16;33.38
48555;BME280;34336;48.270;16.716;2022-07-06T10:14:24;74190.00;;;18.16;33.45
48555;BME280;34336;48.270;16.716;2022-07-06T10:16:52;74263.19;;;18.16;35.08
48555;BME280;34336;48.270;16.716;2022-07-06T10:19:20;74282.44;;;18.16;35.17
48555;BME280;34336;48.270;16.716;2022-07-06T10:21:48;74213.13;;;18.16;33.79
48555;BME280;34336;48.270;16.716;2022-07-06T10:24:15;74180.38;;;18.16;34.58
48555;BME280;34336;48.270;16.716;2022-07-06T10:26:42;74222.75;;;18.16;34.58
48555;BME280;34336;48.270;16.716;2022-07-06T10:29:09;74193.88;;;18.16;34.56
48555;BME280;34336;48.270;16.716;2022-07-06T10:31:48;74320.97;;;18.16;35.35
48555;BME280;34336;48.270;16.716;2022-07-06T10:34:17;74347.91;;;18.16;35.93
48555;BME280;34336;48.270;16.716;2022-07-06T10:36:50;74376.81;;;18.16;36.35
48555;BME280;34336;48.270;16.716;2022-07-06T10:39:31;74448.06;;;18.16;36.42
48555;BME280;34336;48.270;16.716;2022-07-06T10:42:46;74396.06;;;18.16;35.30
48555;BME280;34336;48.270;16.716;2022-07-06T10:45:49;74430.72;;;18.16;35.98
48555;BME280;34336;48.270;16.716;2022-07-06T10:53:11;74315.19;;;18.16;36.23
48555;BME280;34336;48.270;16.716;2022-07-06T10:55:40;74253.56;;;18.16;35.60
48555;BME280;34336;48.270;16.716;2022-07-06T10:58:07;74255.47;;;18.16;35.15
48555;BME280;34336;48.270;16.716;2022-07-06T11:00:54;74172.69;;;18.16;33.64
48555;BME280;34336;48.270;16.716;2022-07-06T11:03:40;74190.00;;;18.16;35.98
48555;BME280;34336;48.270;16.716;2022-07-06T11:09:01;74120.69;;;18.16;35.25
48555;BME280;34336;48.270;16.716;2022-07-06T11:14:08;74228.53;;;18.16;33.63
48555;BME280;34336;48.270;16.716;2022-07-06T11:16:39;74159.19;;;18.16;34.06
48555;BME280;34336;48.270;16.716;2022-07-06T11:19:13;74282.44;;;18.16;34.64
48555;BME280;34336;48.270;16.716;2022-07-06T11:21:44;74307.47;;;18.16;34.77
48555;BME280;34336;48.270;16.716;2022-07-06T11:24:15;74357.56;;;18.16;35.77
48555;BME280;34336;48.270;16.716;2022-07-06T11:26:44;74392.22;;;18.16;35.09
48555;BME280;34336;48.270;16.716;2022-07-06T11:29:14;74446.13;;;18.16;35.95
48555;BME280;34336;48.270;16.716;2022-07-06T11:31:43;74448.06;;;18.16;36.86
48555;BME280;34336;48.270;16.716;2022-07-06T11:37:10;74428.81;;;18.16;36.78
48555;BME280;34336;48.270;16.716;2022-07-06T11:39:39;74351.78;;;18.16;34.79
48555;BME280;34336;48.270;16.716;2022-07-06T11:42:08;74349.84;;;18.16;35.38
48555;BME280;34336;48.270;16.716;2022-07-06T11:44:36;74324.81;;;18.16;34.43
48555;BME280;34336;48.270;16.716;2022-07-06T11:47:04;74382.59;;;18.16;34.31
48555;BME280;34336;48.270;16.716;2022-07-06T11:49:34;74509.69;;;18.16;36.10
48555;BME280;34336;48.270;16.716;2022-07-06T11:52:13;74540.50;;;18.16;37.18
48555;BME280;34336;48.270;16.716;2022-07-06T11:54:40;74575.16;;;18.16;37.14
48555;BME280;34336;48.270;16.716;2022-07-06T11:57:08;74609.84;;;18.16;36.96
48555;BME280;34336;48.270;16.716;2022-07-06T11:59:39;74565.53;;;18.16;37.10
48555;BME280;34336;48.270;16.716;2022-07-06T12:04:36;74544.34;;;18.16;36.41
48555;BME280;34336;48.270;16.716;2022-07-06T12:07:08;74525.09;;;18.16;36.78
48555;BME280;34336;48.270;16.716;2022-07-06T12:09:39;74505.84;;;18.16;36.67
48555;BME280;34336;48.270;16.716;2022-07-06T12:12:08;74505.84;;;18.16;36.54
48555;BME280;34336;48.270;16.716;2022-07-06T12:14:37;74502.00;;;18.16;37.40
48555;BME280;34336;48.270;16.716;2022-07-06T12:17:08;74478.88;;;18.16;37.88
48555;BME280;34336;48.270;16.716;2022-07-06T12:19:37;74577.09;;;18.16;39.15
48555;BME280;34336;48.270;16.716;2022-07-06T12:22:06;74596.34;;;18.16;39.98
48555;BME280;34336;48.270;16.716;2022-07-06T12:24:34;74588.66;;;18.16;40.00
48555;BME280;34336;48.270;16.716;2022-07-06T12:27:15;74600.19;;;18.16;40.30
48555;BME280;34336;48.270;16.716;2022-07-06T12:29:43;74590.56;;;18.16;40.95
48555;BME280;34336;48.270;16.716;2022-07-06T12:32:17;74642.56;;;18.16;41.28
48555;BME280;34336;48.270;16.716;2022-07-06T12:34:45;74636.81;;;18.16;41.44
48555;BME280;34336;48.270;16.716;2022-07-06T12:37:12;74659.91;;;18.16;40.93
48555;BME280;34336;48.270;16.716;2022-07-06T12:39:46;74708.06;;;18.16;43.07
48555;BME280;34336;48.270;16.716;2022-07-06T12:42:15;74717.69;;;18.16;43.04
48555;BME280;34336;48.270;16.716;2022-07-06T12:44:51;74690.72;;;18.16;45.00
48555;BME280;34336;48.270;16.716;2022-07-06T12:47:20;74683.03;;;18.16;44.59
48555;BME280;34336;48.270;16.716;2022-07-06T12:50:04;74694.56;;;18.16;42.81
48555;BME280;34336;48.270;16.716;2022-07-06T12:52:32;74640.66;;;18.16;44.43
48555;BME280;34336;48.270;16.716;2022-07-06T12:55:00;74552.06;;;18.16;44.21
48555;BME280;34336;48.270;16.716;2022-07-06T12:57:47;74448.06;;;18.16;40.67
48555;BME280;34336;48.270;16.716;2022-07-06T13:00:15;74386.44;;;18.16;40.56
48555;BME280;34336;48.270;16.716;2022-07-06T13:02:50;74359.47;;;18.16;38.55
48555;BME280;34336;48.270;16.716;2022-07-06T13:05:36;74346.00;;;18.16;36.06
48555;BME280;34336;48.270;16.716;2022-07-06T13:08:05;74411.47;;;18.16;37.26
48555;BME280;34336;48.270;16.716;2022-07-06T13:10:32;74553.97;;;18.16;39.36
48555;BME280;34336;48.270;16.716;2022-07-06T13:13:00;74592.50;;;18.16;39.33
48555;BME280;34336;48.270;16.716;2022-07-06T13:15:27;74632.94;;;18.16;40.04
48555;BME280;34336;48.270;16.716;2022-07-06T13:17:53;74669.53;;;18.16;40.56
48555;BME280;34336;48.270;16.716;2022-07-06T13:20:20;74671.47;;;18.16;40.69
48555;BME280;34336;48.270;16.716;2022-07-06T13:22:47;74652.22;;;18.16;40.53